Time;durP1;ratioP1;P1;durP2;ratioP2;P2;SDS_P1;SDS_P2;PMS_P1;PMS_P2;Temp;Humidity;BMP_temperature;BMP_pressure;BME280_temperature;BME280_humidity;BME280_pressure;Samples;Min_cycle;Max_cycle;Signal;HPM_P1;HPM_P2
2021/03/24 00:01:43;;;;;;;55.03;21.52;;;;;;;;;;4854261;29;20089;-85
2021/03/24 00:04:12;;;;;;;56.35;23.52;;;;;;;;;;4847935;29;20054;-84
2021/03/24 00:06:41;;;;;;;36.45;18.45;;;6.00;99.90;;;;;;4861155;29;20077;-86
2021/03/24 00:09:13;;;;;;;52.25;18.50;;;;;;;;;;4843768;29;20046;-86
2021/03/24 00:11:41;;;;;;;49.90;21.70;;;;;;;;;;4851502;29;20066;-85
2021/03/24 00:14:11;;;;;;;36.95;18.27;;;;;;;;;;4847606;29;20132;-87
2021/03/24 00:16:44;;;;;;;44.30;19.48;;;;;;;;;;4844010;29;20049;-84
2021/03/24 00:19:15;;;;;;;34.63;16.27;;;;;;;;;;4846710;29;20054;-86
2021/03/24 00:21:48;;;;;;;40.72;17.92;;;;;;;;;;4844023;29;20053;-85
2021/03/24 00:24:17;;;;;;;41.92;21.40;;;;;;;;;;4860395;29;20054;-87
2021/03/24 00:26:45;;;;;;;42.35;19.00;;;;;;;;;;4846797;29;20058;-85
2021/03/24 00:29:13;;;;;;;38.30;18.33;;;;;;;;;;4860071;29;20057;-86
2021/03/24 00:31:41;;;;;;;40.53;17.60;;;;;;;;;;4868270;29;20057;-86
2021/03/24 00:34:09;;;;;;;40.15;16.25;;;;;;;;;;4854953;29;20054;-84
2021/03/24 00:36:38;;;;;;;45.83;20.48;;;;;;;;;;4854393;29;20049;-86
2021/03/24 00:39:05;;;;;;;41.97;18.85;;;;;;;;;;4847509;29;20053;-84
2021/03/24 00:41:33;;;;;;;42.33;19.38;;;;;;;;;;4849114;29;20057;-86
2021/03/24 00:44:01;;;;;;;39.03;18.88;;;;;;;;;;4834375;29;20057;-84
2021/03/24 00:46:29;;;;;;;43.67;21.15;;;;;;;;;;4863436;29;20050;-86
2021/03/24 00:48:56;;;;;;;45.53;19.20;;;;;;;;;;4864410;29;20053;-86
2021/03/24 00:51:24;;;;;;;39.20;19.88;;;;;;;;;;4850048;29;20053;-86
2021/03/24 00:53:52;;;;;;;41.42;20.98;;;5.70;99.90;;;;;;4833177;29;20467;-84
2021/03/24 00:56:20;;;;;;;43.25;18.58;;;;;;;;;;4862442;29;20060;-85
2021/03/24 00:58:48;;;;;;;33.88;17.80;;;;;;;;;;4853134;29;20050;-84
2021/03/24 01:01:16;;;;;;;55.28;21.27;;;;;;;;;;4839610;29;20066;-86
2021/03/24 01:03:46;;;;;;;59.97;21.33;;;;;;;;;;4841522;29;20057;-85
2021/03/24 01:06:14;;;;;;;38.20;17.10;;;;;;;;;;4856048;29;20058;-86
2021/03/24 01:08:41;;;;;;;42.38;21.75;;;;;;;;;;4853661;29;20058;-85
2021/03/24 01:11:09;;;;;;;35.28;18.60;;;;;;;;;;4838533;29;20073;-85
2021/03/24 01:13:36;;;;;;;45.55;18.63;;;;;;;;;;4850892;29;20049;-85
2021/03/24 01:16:04;;;;;;;50.75;18.38;;;;;;;;;;4852945;29;20497;-85
2021/03/24 01:18:32;;;;;;;38.45;20.58;;;;;;;;;;4838393;29;20061;-84
2021/03/24 01:21:00;;;;;;;41.13;19.63;;;;;;;;;;4839102;29;20057;-85
2021/03/24 01:23:27;;;;;;;41.47;18.95;;;;;;;;;;4837812;29;20065;-84
2021/03/24 01:25:55;;;;;;;42.80;18.15;;;;;;;;;;4851547;29;20068;-85
2021/03/24 01:28:25;;;;;;;49.58;20.50;;;5.70;99.90;;;;;;4841683;29;20065;-85
2021/03/24 01:30:55;;;;;;;47.67;22.38;;;5.70;99.90;;;;;;4839809;29;20058;-85
2021/03/24 01:33:23;;;;;;;54.40;21.95;;;5.70;99.90;;;;;;4851904;29;20058;-84
2021/03/24 01:35:53;;;;;;;40.90;16.35;;;5.80;99.90;;;;;;4837669;29;20066;-86
2021/03/24 01:38:21;;;;;;;51.80;22.52;;;5.70;99.90;;;;;;4822231;29;20046;-84
2021/03/24 01:40:52;;;;;;;47.17;21.30;;;5.70;99.90;;;;;;4838774;29;20066;-84
2021/03/24 01:43:23;;;;;;;32.75;15.63;;;5.80;99.90;;;;;;4847209;29;20050;-85
2021/03/24 01:46:26;;;;;;;41.45;19.17;;;5.80;99.90;;;;;;4852987;29;20065;-86
2021/03/24 01:48:58;;;;;;;51.95;20.77;;;5.90;99.90;;;;;;4844771;29;20054;-85
2021/03/24 01:51:36;;;;;;;41.35;21.48;;;5.70;99.90;;;;;;4841553;29;20058;-86
2021/03/24 01:54:06;;;;;;;49.17;20.98;;;5.80;99.90;;;;;;4853110;29;20058;-85
2021/03/24 01:56:35;;;;;;;44.10;21.15;;;;;;;;;;4835089;29;20050;-84
2021/03/24 01:59:06;;;;;;;40.15;16.60;;;;;;;;;;4835459;29;20069;-84
2021/03/24 02:01:33;;;;;;;42.28;21.38;;;;;;;;;;4838019;29;20058;-85
2021/03/24 02:04:01;;;;;;;43.08;20.80;;;;;;;;;;4840951;29;20058;-85
2021/03/24 02:06:45;;;;;;;47.65;22.15;;;5.80;99.90;;;;;;4836783;29;20061;-84
2021/03/24 02:09:27;;;;;;;56.47;18.55;;;5.90;99.90;;;;;;4849354;29;20054;-84
2021/03/24 02:12:07;;;;;;;51.08;21.65;;;5.80;99.90;;;;;;4837422;29;20064;-85
2021/03/24 02:14:41;;;;;;;47.45;22.90;;;5.90;99.90;;;;;;4852975;29;20062;-84
2021/03/24 02:17:10;;;;;;;49.67;19.95;;;5.90;99.90;;;;;;4839927;29;20050;-84
2021/03/24 02:19:47;;;;;;;46.65;21.08;;;5.90;99.90;;;;;;4850098;29;20069;-85
2021/03/24 02:22:22;;;;;;;41.83;23.33;;;5.80;99.90;;;;;;4854515;29;20076;-85
2021/03/24 02:25:06;;;;;;;47.30;22.98;;;5.90;99.90;;;;;;4851933;29;20054;-85
2021/03/24 02:27:37;;;;;;;42.22;18.02;;;5.80;99.90;;;;;;4849977;29;20491;-85
2021/03/24 02:30:05;;;;;;;52.47;27.13;;;;;;;;;;4864540;29;20172;-85
2021/03/24 02:32:36;;;;;;;43.13;19.55;;;5.80;99.90;;;;;;4855441;29;20050;-84
2021/03/24 02:35:12;;;;;;;49.65;23.95;;;5.70;99.90;;;;;;4841781;29;20054;-84
2021/03/24 02:37:40;;;;;;;48.63;19.98;;;5.80;99.90;;;;;;4841398;29;20165;-85
2021/03/24 02:40:11;;;;;;;42.45;15.65;;;5.80;99.90;;;;;;4827834;29;20061;-85
2021/03/24 02:42:41;;;;;;;40.17;20.60;;;5.80;99.90;;;;;;4856716;29;20076;-85
2021/03/24 02:45:12;;;;;;;46.70;25.98;;;5.80;99.90;;;;;;4842259;29;20061;-85
2021/03/24 02:47:42;;;;;;;58.80;28.80;;;5.70;99.90;;;;;;4850242;29;20061;-85
2021/03/24 02:50:11;;;;;;;61.15;24.45;;;5.80;99.90;;;;;;4843023;29;20065;-85
2021/03/24 02:52:39;;;;;;;51.88;24.13;;;;;;;;;;4841296;29;20062;-84
2021/03/24 02:55:11;;;;;;;61.40;25.67;;;5.80;99.90;;;;;;4841879;29;20054;-85
2021/03/24 02:57:38;;;;;;;60.65;26.45;;;;;;;;;;4840208;29;20066;-84
2021/03/24 03:00:09;;;;;;;57.67;23.10;;;5.70;99.90;;;;;;4836319;29;20057;-85
2021/03/24 03:02:41;;;;;;;46.03;19.02;;;5.70;99.90;;;;;;4837808;29;20058;-84
2021/03/24 03:05:13;;;;;;;58.10;30.42;;;5.70;99.90;;;;;;4834140;29;20054;-84
2021/03/24 03:07:55;;;;;;;60.40;27.15;;;5.70;99.90;;;;;;4841938;29;20054;-85
2021/03/24 03:10:30;;;;;;;54.80;25.02;;;5.80;99.90;;;;;;4854663;29;20053;-85
2021/03/24 03:13:20;;;;;;;56.17;28.10;;;5.70;99.90;;;;;;4841586;29;20073;-85
2021/03/24 03:16:30;;;;;;;57.30;27.90;;;5.70;99.90;;;;;;4840859;29;20058;-84
2021/03/24 03:19:12;;;;;;;54.00;27.40;;;5.70;99.90;;;;;;4833229;29;20520;-85
2021/03/24 03:21:43;;;;;;;59.55;27.80;;;5.70;99.90;;;;;;4858366;29;20058;-85
2021/03/24 03:24:35;;;;;;;66.28;27.23;;;5.70;99.90;;;;;;4832332;29;20669;-85
2021/03/24 03:27:04;;;;;;;63.70;28.35;;;5.70;99.90;;;;;;4856943;29;20050;-86
2021/03/24 03:29:32;;;;;;;57.90;28.83;;;;;;;;;;4870557;29;20065;-86
2021/03/24 03:32:02;;;;;;;59.45;30.35;;;5.70;99.90;;;;;;4851284;29;20070;-84
2021/03/24 03:34:32;;;;;;;62.75;27.33;;;5.60;99.90;;;;;;4837926;29;20062;-85
2021/03/24 03:37:00;;;;;;;56.83;24.25;;;;;;;;;;4840751;29;20058;-86
2021/03/24 03:39:29;;;;;;;50.72;23.90;;;5.60;99.90;;;;;;4856636;29;20677;-85
2021/03/24 03:42:00;;;;;;;68.30;30.05;;;5.70;99.90;;;;;;4856164;29;20065;-85
2021/03/24 03:44:30;;;;;;;56.17;25.67;;;5.70;99.90;;;;;;4856673;29;20070;-85
2021/03/24 03:47:05;;;;;;;58.83;27.05;;;5.70;99.90;;;;;;4841163;29;20066;-85
2021/03/24 03:49:33;;;;;;;65.78;29.25;;;;;;;;;;4846901;29;20085;-85
2021/03/24 03:52:15;;;;;;;51.80;28.17;;;5.70;99.90;;;;;;4853501;29;20065;-86
2021/03/24 03:54:51;;;;;;;56.72;23.90;;;;;;;;;;4867233;29;20537;-86
2021/03/24 03:57:31;;;;;;;59.55;29.90;;;5.50;99.90;;;;;;4851443;29;20058;-85
2021/03/24 04:00:09;;;;;;;;;;;5.70;99.90;;;;;;4851775;29;20068;-85
2021/03/24 04:03:01;;;;;;;57.47;32.33;;;5.60;99.90;;;;;;4851302;29;19928;-85
2021/03/24 04:05:54;;;;;;;62.80;30.85;;;5.50;99.90;;;;;;4845964;29;20061;-85
2021/03/24 04:08:26;;;;;;;65.25;28.10;;;5.50;99.90;;;;;;4840703;29;20054;-85
2021/03/24 04:10:56;;;;;;;61.70;31.73;;;5.40;99.90;;;;;;4854352;29;20062;-86
2021/03/24 04:13:28;;;;;;;62.17;33.13;;;5.30;99.90;;;;;;4853887;29;20411;-85
2021/03/24 04:15:57;;;;;;;;;;;6.00;99.90;;;;;;4855084;29;20054;-85
2021/03/24 04:18:48;;;;;;;67.07;28.35;;;5.30;99.90;;;;;;4842453;29;19928;-86
2021/03/24 04:21:17;;;;;;;63.60;28.63;;;5.20;99.90;;;;;;4818773;29;20066;-85
2021/03/24 04:23:51;;;;;;;59.50;25.98;;;5.20;99.90;;;;;;4852319;29;20053;-86
2021/03/24 04:26:34;;;;;;;55.90;29.02;;;5.20;99.90;;;;;;4831966;29;20057;-85
2021/03/24 04:29:11;;;;;;;56.50;26.95;;;5.10;99.90;;;;;;4843692;29;20049;-86
2021/03/24 04:31:44;;;;;;;52.95;26.92;;;5.00;99.90;;;;;;4853266;29;20042;-84
2021/03/24 04:34:12;;;;;;;59.15;28.70;;;;;;;;;;4853935;29;20057;-85
2021/03/24 04:36:44;;;;;;;50.88;23.17;;;5.00;99.90;;;;;;4839896;29;20073;-85
2021/03/24 04:39:35;;;;;;;59.05;26.40;;;4.90;99.90;;;;;;4838293;29;20053;-85
2021/03/24 04:42:15;;;;;;;54.50;28.03;;;4.80;99.90;;;;;;4838291;29;20097;-86
2021/03/24 04:44:46;;;;;;;55.72;24.77;;;4.80;99.90;;;;;;4853288;29;20078;-85
2021/03/24 04:47:22;;;;;;;57.53;28.90;;;4.30;99.90;;;;;;4836764;29;20058;-85
2021/03/24 04:49:58;;;;;;;67.75;26.52;;;4.70;99.90;;;;;;4837897;29;20053;-84
2021/03/24 04:52:28;;;;;;;63.30;30.55;;;4.70;99.90;;;;;;4853345;29;20069;-84
2021/03/24 04:54:59;;;;;;;67.47;27.92;;;4.60;99.90;;;;;;4853310;29;20076;-83
2021/03/24 04:57:27;;;;;;;61.05;27.23;;;;;;;;;;4852303;29;20510;-84
2021/03/24 05:00:03;;;;;;;60.15;28.33;;;4.60;99.90;;;;;;4851816;29;20074;-84
2021/03/24 05:02:33;;;;;;;60.13;27.13;;;4.50;99.90;;;;;;4839205;29;20062;-85
2021/03/24 05:05:01;;;;;;;56.28;27.40;;;;;;;;;;4837834;29;20063;-85
2021/03/24 05:07:44;;;;;;;57.58;28.10;;;4.30;99.90;;;;;;4849050;29;20061;-85
2021/03/24 05:10:17;;;;;;;70.22;29.50;;;4.20;99.90;;;;;;4838963;29;20068;-85
2021/03/24 05:12:52;;;;;;;65.00;27.50;;;4.30;99.90;;;;;;4838051;29;20049;-85
2021/03/24 05:15:26;;;;;;;64.40;28.58;;;4.10;99.90;;;;;;4839140;29;20066;-84
2021/03/24 05:17:55;;;;;;;65.40;27.38;;;4.20;99.90;;;;;;4843677;29;20086;-85
2021/03/24 05:20:29;;;;;;;57.83;26.65;;;4.20;99.90;;;;;;4839189;29;20073;-85
2021/03/24 05:22:57;;;;;;;64.63;27.90;;;;;;;;;;4853650;29;20054;-84
2021/03/24 05:25:39;;;;;;;61.85;28.50;;;4.10;99.90;;;;;;4839638;29;20069;-84
2021/03/24 05:28:19;;;;;;;60.08;24.65;;;4.00;99.90;;;;;;4860481;29;20053;-84
2021/03/24 05:31:02;;;;;;;62.65;29.50;;;4.00;99.90;;;;;;4867318;29;20074;-84
2021/03/24 05:33:35;;;;;;;70.35;28.45;;;3.90;99.90;;;;;;4846956;29;20054;-84
2021/03/24 05:36:14;;;;;;;58.08;29.58;;;3.90;99.90;;;;;;4856404;29;20053;-85
2021/03/24 05:38:42;;;;;;;64.00;24.92;;;;;;;;;;4875603;29;20048;-85
2021/03/24 05:41:09;;;;;;;59.58;27.25;;;;;;;;;;4846224;29;20042;-84
2021/03/24 05:44:14;;;;;;;58.13;28.75;;;3.70;99.90;;;;;;4876734;29;20061;-85
2021/03/24 05:47:03;;;;;;;56.88;25.80;;;3.70;99.90;;;;;;4873291;29;20038;-86
2021/03/24 05:49:59;;;;;;;51.72;22.92;;;3.70;99.90;;;;;;4851984;29;20112;-85
2021/03/24 05:52:51;;;;;;;66.07;27.48;;;3.90;99.90;;;;;;4825836;29;20057;-85
2021/03/24 05:55:30;;;;;;;77.05;29.75;;;3.60;99.90;;;;;;4837481;29;20065;-84
2021/03/24 05:58:06;;;;;;;53.88;29.40;;;;;;;;;;4850248;29;20062;-85
2021/03/24 06:01:02;;;;;;;53.30;24.33;;;3.60;99.90;;;;;;4824604;29;20058;-85
2021/03/24 06:04:05;;;;;;;64.25;28.08;;;3.70;99.90;;;;;;4835037;29;20054;-85
2021/03/24 06:06:33;;;;;;;54.33;25.73;;;;;;;;;;4845312;29;20057;-85
2021/03/24 06:09:00;;;;;;;58.13;25.35;;;;;;;;;;4836682;29;20046;-84
2021/03/24 06:12:09;;;;;;;47.47;22.67;;;3.70;99.90;;;;;;4852241;29;20062;-86
2021/03/24 06:14:55;;;;;;;61.58;26.08;;;3.80;99.90;;;;;;4834967;29;20054;-85
2021/03/24 06:17:31;;;;;;;56.67;26.95;;;3.70;99.90;;;;;;4843955;29;20065;-85
2021/03/24 06:20:23;;;;;;;52.15;25.70;;;3.80;99.90;;;;;;4841323;29;20054;-84
2021/03/24 06:23:09;;;;;;;55.83;27.15;;;3.90;99.90;;;;;;4841605;29;20046;-85
2021/03/24 06:25:47;;;;;;;60.78;27.33;;;3.90;99.90;;;;;;4838952;29;20061;-85
2021/03/24 06:28:30;;;;;;;59.85;27.20;;;4.00;99.90;;;;;;4855170;29;20387;-85
2021/03/24 06:31:19;;;;;;;63.40;27.25;;;3.90;99.90;;;;;;4834707;29;20533;-84
2021/03/24 06:34:15;;;;;;;57.85;27.65;;;4.10;99.90;;;;;;4840085;29;20157;-84
2021/03/24 06:37:20;;;;;;;62.75;30.05;;;4.10;99.90;;;;;;4840097;29;20046;-84
2021/03/24 06:40:09;;;;;;;67.00;27.80;;;4.20;99.90;;;;;;4818650;29;20415;-85
2021/03/24 06:43:08;;;;;;;73.82;29.38;;;4.20;99.90;;;;;;4818796;29;20058;-86
2021/03/24 06:45:45;;;;;;;74.03;29.70;;;4.30;99.90;;;;;;4811210;29;20066;-84
2021/03/24 06:48:26;;;;;;;60.95;29.23;;;4.30;99.90;;;;;;4852133;29;20137;-85
2021/03/24 06:51:12;;;;;;;;;;;4.30;99.90;;;;;;4837595;29;20078;-84
2021/03/24 06:54:26;;;;;;;69.90;28.17;;;4.30;99.90;;;;;;4852799;29;19928;-85
2021/03/24 06:57:44;;;;;;;66.22;29.10;;;4.50;99.90;;;;;;4853443;29;20057;-86
2021/03/24 07:00:28;;;;;;;65.70;32.65;;;4.70;99.90;;;;;;4849121;29;20034;-85
2021/03/24 07:03:26;;;;;;;58.15;29.38;;;4.60;99.90;;;;;;4838708;29;20053;-84
2021/03/24 07:06:31;;;;;;;70.68;32.05;;;4.80;99.90;;;;;;4857771;29;20507;-85
2021/03/24 07:09:17;;;;;;;70.65;33.15;;;4.80;99.90;;;;;;4842892;29;20057;-85
2021/03/24 07:12:31;;;;;;;58.55;28.63;;;5.00;99.90;;;;;;4855345;29;20069;-85
2021/03/24 07:15:26;;;;;;;62.70;32.42;;;5.20;99.90;;;;;;4829615;29;20058;-86
2021/03/24 07:18:23;;;;;;;85.32;36.33;;;5.30;99.90;;;;;;4857500;29;20062;-84
2021/03/24 07:20:51;;;;;;;77.53;35.95;;;;;;;;;;4837958;29;20054;-85
2021/03/24 07:23:37;;;;;;;77.55;35.97;;;5.80;99.90;;;;;;4855121;29;20050;-85
2021/03/24 07:26:23;;;;;;;63.15;33.00;;;5.60;99.90;;;;;;4854728;29;20065;-84
2021/03/24 07:29:28;;;;;;;87.10;35.05;;;6.10;99.90;;;;;;4853816;29;20128;-84
2021/03/24 07:32:06;;;;;;;74.40;35.42;;;5.80;99.90;;;;;;4839449;29;20065;-85
2021/03/24 07:35:10;;;;;;;81.32;33.20;;;5.80;99.90;;;;;;4846329;29;20494;-84
2021/03/24 07:37:59;;;;;;;66.35;33.25;;;5.90;99.90;;;;;;4861736;29;20058;-83
2021/03/24 07:40:27;;;;;;;81.78;37.80;;;;;;;;;;4850990;29;20061;-85
2021/03/24 07:43:28;;;;;;;71.07;35.17;;;6.10;99.90;;;;;;4848237;29;20049;-86
2021/03/24 07:46:01;;;;;;;69.72;34.60;;;;;;;;;;4862104;29;20108;-83
2021/03/24 07:48:35;;;;;;;87.35;37.20;;;;;;;;;;4854874;29;20061;-89
2021/03/24 07:51:35;;;;;;;91.05;36.10;;;6.30;99.90;;;;;;4837055;29;20403;-89
2021/03/24 07:54:15;;;;;;;73.75;36.28;;;6.30;99.90;;;;;;4852450;29;20057;-91
2021/03/24 07:57:13;;;;;;;56.90;28.17;;;6.50;99.90;;;;;;4868149;29;20050;-90
2021/03/24 08:00:12;;;;;;;65.25;28.38;;;6.60;99.90;;;;;;4831627;29;20066;-90
2021/03/24 08:02:56;;;;;;;66.88;28.80;;;6.80;99.90;;;;;;4861509;29;20053;-88
2021/03/24 08:05:44;;;;;;;63.03;29.88;;;7.10;99.90;;;;;;4850954;29;20054;-88
2021/03/24 08:08:38;;;;;;;57.30;23.48;;;7.20;99.90;;;;;;4855516;29;20422;-88
2021/03/24 08:11:18;;;;;;;61.63;28.83;;;7.40;99.90;;;;;;4843033;29;20079;-91
2021/03/24 08:14:01;;;;;;;53.40;25.95;;;7.50;99.90;;;;;;4839634;29;20058;-91
2021/03/24 08:17:09;;;;;;;58.25;26.48;;;7.60;99.90;;;;;;4825060;29;20811;-86
2021/03/24 08:19:37;;;;;;;55.08;26.65;;;;;;;;;;4849741;29;20054;-84
2021/03/24 08:22:38;;;;;;;58.78;28.15;;;7.70;99.90;;;;;;4838838;29;20058;-86
2021/03/24 08:25:40;;;;;;;74.95;28.45;;;7.80;99.90;;;;;;4838832;29;20046;-85
2021/03/24 08:28:19;;;;;;;60.00;26.90;;;;;;;;;;4835768;29;20054;-85
2021/03/24 08:31:23;;;;;;;44.58;19.42;;;8.00;99.90;;;;;;4831060;29;20058;-86
2021/03/24 08:33:52;;;;;;;48.33;21.85;;;;;;;;;;4832995;29;20061;-85
2021/03/24 08:36:57;;;;;;;58.00;26.20;;;8.70;99.90;;;;;;4852883;29;20062;-87
2021/03/24 08:39:55;;;;;;;41.30;22.08;;;8.40;99.90;;;;;;4839055;29;20066;-87
2021/03/24 08:42:51;;;;;;;41.85;20.10;;;8.90;99.90;;;;;;4853631;29;20414;-88
2021/03/24 08:45:19;;;;;;;49.53;20.25;;;;;;;;;;4814380;29;20053;-85
2021/03/24 08:47:50;;;;;;;42.83;20.98;;;8.90;99.90;;;;;;4851745;29;20076;-86
2021/03/24 08:50:42;;;;;;;48.30;19.90;;;9.10;99.90;;;;;;4837282;29;20046;-88
2021/03/24 08:53:24;;;;;;;51.20;19.88;;;9.10;99.90;;;;;;4851818;29;20057;-85
2021/03/24 08:56:19;;;;;;;40.97;20.73;;;8.90;99.90;;;;;;4828457;29;20061;-85
2021/03/24 08:59:03;;;;;;;49.67;22.08;;;9.40;99.90;;;;;;4837272;29;20057;-85
2021/03/24 09:01:58;;;;;;;37.80;18.77;;;9.50;99.90;;;;;;4806421;29;20050;-83
2021/03/24 09:05:08;;;;;;;44.13;21.42;;;9.90;99.90;;;;;;4842624;29;20522;-86
2021/03/24 09:07:35;;;;;;;40.38;17.63;;;;;;;;;;4831408;29;20050;-84
2021/03/24 09:10:28;;;;;;;39.28;17.58;;;10.00;99.90;;;;;;4852287;29;20130;-87
2021/03/24 09:13:11;;;;;;;44.53;18.92;;;10.10;99.90;;;;;;4837208;29;20069;-85
2021/03/24 09:15:52;;;;;;;34.20;18.85;;;10.20;99.90;;;;;;4821609;29;20044;-85
2021/03/24 09:18:28;;;;;;;41.00;17.23;;;10.30;99.90;;;;;;4834057;29;20054;-86
2021/03/24 09:21:18;;;;;;;51.38;19.08;;;10.40;99.90;;;;;;4833559;29;20129;-87
2021/03/24 09:24:13;;;;;;;45.15;17.58;;;10.40;99.90;;;;;;4848626;29;20050;-88
2021/03/24 09:27:06;;;;;;;40.33;17.08;;;10.50;99.90;;;;;;4847695;29;20050;-86
2021/03/24 09:29:58;;;;;;;40.25;17.42;;;10.60;99.90;;;;;;4836603;29;20061;-87
2021/03/24 09:32:33;;;;;;;40.83;16.85;;;10.80;99.90;;;;;;4835165;29;20046;-85
2021/03/24 09:35:45;;;;;;;43.78;15.85;;;10.80;99.90;;;;;;4838546;29;20062;-85
2021/03/24 09:38:19;;;;;;;32.30;16.88;;;10.80;99.90;;;;;;4837254;29;20081;-88
2021/03/24 09:40:50;;;;;;;29.40;16.10;;;10.80;99.90;;;;;;4822911;29;20454;-84
2021/03/24 09:43:23;;;;;;;33.13;15.18;;;10.70;99.90;;;;;;4837005;29;20422;-83
2021/03/24 09:46:06;;;;;;;37.72;15.60;;;10.80;99.90;;;;;;4837042;29;20054;-84
2021/03/24 09:48:59;;;;;;;34.63;15.30;;;10.70;99.90;;;;;;4843852;29;20058;-86
2021/03/24 09:51:40;;;;;;;40.75;14.15;;;10.90;99.90;;;;;;4836716;29;20054;-86
2021/03/24 09:54:24;;;;;;;30.67;14.38;;;10.80;99.90;;;;;;4853719;29;20566;-87
2021/03/24 09:57:01;;;;;;;34.08;14.60;;;11.00;99.90;;;;;;4838654;29;20202;-88
2021/03/24 10:00:02;;;;;;;40.13;16.15;;;11.00;99.90;;;;;;4838914;29;20418;-88
2021/03/24 10:02:53;;;;;;;32.75;13.95;;;11.10;99.90;;;;;;4836941;29;20081;-89
2021/03/24 10:05:31;;;;;;;36.22;17.95;;;11.30;99.90;;;;;;4820677;29;20050;-85
2021/03/24 10:08:07;;;;;;;29.92;14.80;;;11.30;99.90;;;;;;4852293;29;20391;-86
2021/03/24 10:10:36;;;;;;;34.38;13.15;;;11.30;99.90;;;;;;4825416;29;20065;-88
2021/03/24 10:13:07;;;;;;;30.73;13.30;;;11.40;99.90;;;;;;4860911;29;20534;-89
2021/03/24 10:15:39;;;;;;;38.15;15.27;;;11.40;99.90;;;;;;4841339;29;20049;-87
2021/03/24 10:18:22;;;;;;;29.73;16.52;;;11.50;99.90;;;;;;4821245;29;20057;-88
2021/03/24 10:21:10;;;;;;;37.03;17.08;;;11.60;99.90;;;;;;4850191;29;20454;-87
2021/03/24 10:23:48;;;;;;;34.30;17.00;;;11.80;99.90;;;;;;4837823;29;20058;-87
2021/03/24 10:26:16;;;;;;;42.28;15.98;;;;;;;;;;4841126;29;20049;-88
2021/03/24 10:28:53;;;;;;;37.38;16.48;;;11.90;99.90;;;;;;4840817;29;20283;-88
2021/03/24 10:31:37;;;;;;;51.58;16.10;;;12.20;99.90;;;;;;4820080;29;20050;-88
2021/03/24 10:34:19;;;;;;;32.55;14.38;;;12.30;99.90;;;;;;4838588;29;20065;-88
2021/03/24 10:36:56;;;;;;;36.20;15.50;;;12.40;99.90;;;;;;4835364;29;20049;-89
2021/03/24 10:39:33;;;;;;;32.08;14.77;;;12.50;99.90;;;;;;4834880;29;20053;-89
2021/03/24 10:42:35;;;;;;;30.38;14.85;;;12.50;99.90;;;;;;4822427;29;20415;-87
2021/03/24 10:45:02;;;;;;;28.83;12.57;;;;;;;;;;4823065;29;20053;-88
2021/03/24 10:47:39;;;;;;;25.88;12.35;;;12.70;99.90;;;;;;4844876;29;20069;-89
2021/03/24 10:50:14;;;;;;;24.95;10.52;;;12.70;99.90;;;;;;4853652;29;20443;-88
2021/03/24 10:53:01;;;;;;;27.90;12.30;;;12.60;99.90;;;;;;4839019;29;20046;-89
2021/03/24 10:55:30;;;;;;;21.30;10.70;;;13.00;99.90;;;;;;4855585;29;20058;-89
2021/03/24 10:58:36;;;;;;;33.55;14.10;;;13.00;99.90;;;;;;4852440;29;20072;-89
2021/03/24 11:01:12;;;;;;;22.95;12.27;;;12.70;99.90;;;;;;4808124;29;20054;-87
2021/03/24 11:03:47;;;;;;;37.05;13.75;;;12.90;99.90;;;;;;4814948;29;20070;-87
2021/03/24 11:06:25;;;;;;;25.80;10.77;;;12.80;99.90;;;;;;4826043;29;20046;-90
2021/03/24 11:09:15;;;;;;;24.05;11.70;;;12.80;99.90;;;;;;4810780;29;20049;-87
2021/03/24 11:11:49;;;;;;;29.45;10.70;;;12.70;99.90;;;;;;4842025;29;20069;-87
2021/03/24 11:14:31;;;;;;;41.45;11.73;;;12.80;99.90;;;;;;4844066;29;20057;-87
2021/03/24 11:17:16;;;;;;;26.60;9.15;;;12.60;99.90;;;;;;4849406;29;20050;-86
2021/03/24 11:19:47;;;;;;;18.85;9.20;;;12.60;99.90;;;;;;4849258;29;20568;-87
2021/03/24 11:22:15;;;;;;;24.95;11.80;;;;;;;;;;4856664;29;20426;-85
2021/03/24 11:24:52;;;;;;;26.15;10.52;;;;;;;;;;4840424;29;20054;-89
2021/03/24 11:27:42;;;;;;;21.70;9.68;;;13.00;99.90;;;;;;4854274;29;20709;-87
2021/03/24 11:30:20;;;;;;;23.95;6.82;;;13.00;99.90;;;;;;4842639;29;20062;-87
2021/03/24 11:32:55;;;;;;;19.83;8.70;;;13.10;99.90;;;;;;4839011;29;20061;-87
2021/03/24 11:35:23;;;;;;;23.35;8.95;;;;;;;;;;4837900;29;20045;-87
2021/03/24 11:38:08;;;;;;;21.67;9.85;;;13.40;99.90;;;;;;4853764;29;20069;-86
2021/03/24 11:40:45;;;;;;;21.73;7.25;;;13.30;99.90;;;;;;4824232;29;20058;-88
2021/03/24 11:43:41;;;;;;;27.27;9.50;;;13.50;99.90;;;;;;4822646;29;20058;-87
2021/03/24 11:46:16;;;;;;;22.98;9.65;;;;;;;;;;4834567;29;20057;-89
2021/03/24 11:48:55;;;;;;;32.58;11.15;;;13.70;99.90;;;;;;4805327;29;20658;-88
2021/03/24 11:51:32;;;;;;;19.20;9.20;;;;;;;;;;4842264;29;20050;-88
2021/03/24 11:54:02;;;;;;;28.90;10.70;;;;;;;;;;4858921;29;20058;-88
2021/03/24 11:56:42;;;;;;;22.45;8.65;;;;;;;;;;4830082;29;20061;-87
2021/03/24 11:59:41;;;;;;;33.67;8.80;;;14.10;99.90;;;;;;4827788;29;20038;-88
2021/03/24 12:02:22;;;;;;;24.50;9.60;;;14.20;99.90;;;;;;4849959;29;20054;-88
2021/03/24 12:04:50;;;;;;;20.08;8.48;;;;;;;;;;4835084;29;20081;-89
2021/03/24 12:07:27;;;;;;;19.40;8.23;;;;;;;;;;4836687;29;20080;-89
2021/03/24 12:10:21;;;;;;;23.70;8.65;;;13.80;99.90;;;;;;4850239;29;20600;-89
2021/03/24 12:13:06;;;;;;;22.58;8.75;;;13.60;99.90;;;;;;4852002;29;20084;-88
2021/03/24 12:15:36;;;;;;;21.98;8.70;;;13.60;99.90;;;;;;4836274;29;20138;-88
2021/03/24 12:18:17;;;;;;;25.23;9.55;;;13.60;99.90;;;;;;4852481;29;20180;-87
2021/03/24 12:21:00;;;;;;;22.50;8.93;;;13.50;99.90;;;;;;4845595;29;20416;-89
2021/03/24 12:23:32;;;;;;;27.13;9.57;;;;;;;;;;4836316;29;20065;-89
2021/03/24 12:26:02;;;;;;;24.65;9.85;;;13.80;99.90;;;;;;4800753;29;20050;-88
2021/03/24 12:28:38;;;;;;;16.40;7.03;;;13.70;99.90;;;;;;4832606;29;20057;-89
2021/03/24 12:31:18;;;;;;;23.25;8.38;;;13.70;99.90;;;;;;4820944;29;20061;-90
2021/03/24 12:33:59;;;;;;;26.98;9.77;;;13.80;99.90;;;;;;4836693;29;20054;-90
2021/03/24 12:36:29;;;;;;;21.98;9.90;;;13.80;99.90;;;;;;4834349;29;20046;-88
2021/03/24 12:39:06;;;;;;;20.92;8.73;;;13.90;99.90;;;;;;4821675;29;20053;-87
2021/03/24 12:41:39;;;;;;;21.02;8.45;;;13.80;99.90;;;;;;4836885;29;20054;-87
2021/03/24 12:44:17;;;;;;;19.92;7.85;;;13.60;99.90;;;;;;4836042;29;20069;-88
2021/03/24 12:46:50;;;;;;;39.83;9.13;;;13.60;99.90;;;;;;4850228;29;20050;-88
2021/03/24 12:49:21;;;;;;;32.75;9.85;;;13.70;99.90;;;;;;4839417;29;20061;-89
2021/03/24 12:52:22;;;;;;;19.98;7.93;;;13.70;99.90;;;;;;4827512;29;20069;-87
2021/03/24 12:54:49;;;;;;;18.15;7.97;;;;;;;;;;4835765;29;20061;-86
2021/03/24 12:57:47;;;;;;;23.02;9.30;;;11.40;99.90;;;;;;4835464;29;20058;-87
2021/03/24 13:00:21;;;;;;;19.05;8.73;;;13.70;99.90;;;;;;4835154;29;20057;-88
2021/03/24 13:03:23;;;;;;;25.70;7.28;;;13.70;99.90;;;;;;4851331;29;20057;-88
2021/03/24 13:06:28;;;;;;;15.55;7.00;;;13.70;99.90;;;;;;4831744;29;20050;-87
2021/03/24 13:09:26;;;;;;;27.65;8.15;;;;;;;;;;4838597;29;20081;-88
2021/03/24 13:12:12;;;;;;;23.15;7.43;;;13.60;99.90;;;;;;4791882;29;20055;-87
2021/03/24 13:14:40;;;;;;;21.63;8.07;;;;;;;;;;4852828;29;20057;-88
2021/03/24 13:17:23;;;;;;;21.45;7.20;;;13.40;99.90;;;;;;4845472;29;20046;-88
2021/03/24 13:20:17;;;;;;;22.02;8.90;;;13.40;99.90;;;;;;4828935;29;20069;-88
2021/03/24 13:22:48;;;;;;;22.17;7.13;;;13.30;99.90;;;;;;4814986;29;20056;-88
2021/03/24 13:25:15;;;;;;;;;;;13.30;99.90;;;;;;4814829;29;20065;-86
2021/03/24 13:27:51;;;;;;;17.65;6.95;;;13.10;99.90;;;;;;4834274;29;19938;-87
2021/03/24 13:30:19;;;;;;;22.52;8.68;;;;;;;;;;4834248;29;20084;-87
2021/03/24 13:33:01;;;;;;;18.63;8.10;;;13.00;99.90;;;;;;4849920;29;20054;-87
2021/03/24 13:35:34;;;;;;;23.90;8.98;;;13.10;99.90;;;;;;4848420;29;20046;-87
2021/03/24 13:38:05;;;;;;;21.40;9.85;;;;;;;;;;4836059;29;20061;-88
2021/03/24 13:40:36;;;;;;;20.10;8.98;;;13.00;99.90;;;;;;4823471;29;20053;-88
2021/03/24 13:43:08;;;;;;;;;;;13.30;99.90;;;;;;4836795;29;20051;-88
2021/03/24 13:45:48;;;;;;;19.05;8.75;;;13.40;99.90;;;;;;4831943;29;19931;-87
2021/03/24 13:48:21;;;;;;;27.95;8.80;;;;;;;;;;4821678;29;20062;-88
2021/03/24 13:51:14;;;;;;;26.40;8.45;;;13.40;99.90;;;;;;4835872;29;20074;-87
2021/03/24 13:53:45;;;;;;;22.08;8.75;;;13.50;99.90;;;;;;4852863;29;20074;-87
2021/03/24 13:56:13;;;;;;;23.80;8.52;;;;;;;;;;4833768;29;20061;-89
2021/03/24 13:59:02;;;;;;;23.58;9.38;;;13.60;99.90;;;;;;4835108;29;20049;-90
2021/03/24 14:01:51;;;;;;;20.98;8.38;;;13.70;99.90;;;;;;4833675;29;20057;-89
2021/03/24 14:04:56;;;;;;;19.05;8.40;;;13.80;99.90;;;;;;4830805;29;20050;-90